Pershing, Oklahoma
Current Conditions -  °F | °C
As of 1:53 PM on Thursday 29 Jan 2015 (Local Time) from KBVO Reporting Station
Broken Clouds Broken Clouds  
Wind Chill: 51°   Ceiling: 4100
Heat Index: 51°   Visibility: 10mi
Dew Point: 30°   Wind: 16mph
Humidity: 44%   Direction: 350°N
Pressure: 30.42"   Gusts: 26mph
Location:  36.5242°N, 96.1387°W
Report Text: KBVO 291953Z AUTO 35014G23KT 10SM BKN041 11/M01 A3042 RMK AO2 SLP296 T01061011
Loading
Personal Weather Stations






























Interactive Weather Map New forecast layout! Learn more

10-Day Weather Forecast

Advertisements
Track Severe Weather on mobile